createdAt,value
2023-05-05T00:00:32.501Z,3.67
2023-05-05T00:03:03.049Z,3.75
2023-05-05T00:05:33.125Z,3.76
2023-05-05T00:08:03.602Z,3.69
2023-05-05T00:10:34.055Z,3.75
2023-05-05T00:13:04.243Z,3.69
2023-05-05T00:15:34.946Z,3.75
2023-05-05T00:18:05.410Z,3.69
2023-05-05T00:20:35.580Z,3.62
2023-05-05T00:23:05.936Z,3.69
2023-05-05T00:25:36.110Z,3.69
2023-05-05T00:28:06.593Z,3.69
2023-05-05T00:30:37.049Z,3.63
2023-05-05T00:33:07.516Z,3.65
2023-05-05T00:35:37.967Z,3.71
2023-05-05T00:38:08.726Z,3.72
2023-05-05T00:40:38.910Z,3.72
2023-05-05T00:43:09.068Z,3.78
2023-05-05T00:45:39.566Z,3.79
2023-05-05T00:48:09.687Z,3.75
2023-05-05T00:50:39.858Z,3.73
2023-05-05T00:53:10.318Z,3.68
2023-05-05T00:55:40.446Z,3.63
2023-05-05T00:58:10.733Z,3.77
2023-05-05T01:00:41.492Z,3.71
2023-05-05T01:03:11.880Z,3.64
2023-05-05T01:05:42.010Z,3.71
2023-05-05T01:08:12.174Z,3.78
2023-05-05T01:10:42.405Z,3.8
2023-05-05T01:13:12.583Z,3.78
2023-05-05T01:15:42.700Z,3.72
2023-05-05T01:18:13.361Z,3.78
2023-05-05T01:20:43.767Z,3.79
2023-05-05T01:23:14.210Z,3.86
2023-05-05T01:25:44.678Z,3.85
2023-05-05T01:28:14.830Z,3.93
2023-05-05T01:30:45.067Z,3.99
2023-05-05T01:33:15.564Z,3.86
2023-05-05T01:35:46.344Z,3.86
2023-05-05T01:38:16.991Z,3.8
2023-05-05T01:40:47.435Z,3.94
2023-05-05T01:43:18.019Z,3.87
2023-05-05T01:45:48.241Z,3.87
2023-05-05T01:48:18.744Z,3.81
2023-05-05T01:50:49.063Z,3.86
2023-05-05T01:53:19.626Z,3.8
2023-05-05T01:55:50.087Z,3.87
2023-05-05T01:58:20.243Z,3.73
2023-05-05T02:00:51.003Z,3.74
2023-05-05T02:03:21.568Z,3.86
2023-05-05T02:05:51.675Z,3.8
2023-05-05T02:08:22.154Z,3.87
2023-05-05T02:10:52.662Z,3.93
2023-05-05T02:13:23.149Z,3.81
2023-05-05T02:15:53.824Z,3.81
2023-05-05T02:18:23.978Z,3.94
2023-05-05T02:20:54.421Z,3.96
2023-05-05T02:23:24.904Z,3.76
2023-05-05T02:25:55.114Z,3.89
2023-05-05T02:28:25.555Z,3.95
2023-05-05T02:30:55.684Z,3.81
2023-05-05T02:33:26.165Z,3.94
2023-05-05T02:35:56.601Z,3.88
2023-05-05T02:38:27.078Z,3.88
2023-05-05T02:40:57.265Z,3.87
2023-05-05T02:43:27.802Z,3.88
2023-05-05T02:45:58.227Z,3.83
2023-05-05T02:48:28.412Z,3.89
2023-05-05T02:50:58.852Z,3.9
2023-05-05T02:53:29.605Z,3.9
2023-05-05T02:56:00.464Z,3.92
2023-05-05T02:58:30.842Z,3.91
2023-05-05T03:01:01.410Z,4.04
2023-05-05T03:03:31.941Z,3.98
2023-05-05T03:06:02.552Z,3.91
2023-05-05T03:08:33.272Z,3.97
2023-05-05T03:11:03.495Z,3.85
2023-05-05T03:13:33.639Z,3.98
2023-05-05T03:16:03.905Z,3.98
2023-05-05T03:18:34.681Z,3.98
2023-05-05T03:21:05.132Z,3.97
2023-05-05T03:23:35.960Z,3.91
2023-05-05T03:26:06.356Z,3.98
2023-05-05T03:28:37.144Z,4.04
2023-05-05T03:31:07.635Z,4.04
2023-05-05T03:33:38.128Z,4.04
2023-05-05T03:36:08.888Z,3.97
2023-05-05T03:38:39.400Z,4.04
2023-05-05T03:41:09.873Z,4.11
2023-05-05T03:43:40.510Z,4.11
2023-05-05T03:46:11.052Z,4.24
2023-05-05T03:48:41.368Z,4.24
2023-05-05T03:51:11.511Z,4.25
2023-05-05T03:53:42.033Z,4.18
2023-05-05T03:56:12.539Z,4.45
2023-05-05T03:58:42.744Z,4.25
2023-05-05T04:01:12.830Z,4.13
2023-05-05T04:03:43.579Z,4.07
2023-05-05T04:06:13.925Z,4.09
2023-05-05T04:08:44.162Z,4.62
2023-05-05T04:11:14.602Z,4.37
2023-05-05T04:13:45.132Z,4.19
2023-05-05T04:16:15.872Z,4.26
2023-05-05T04:18:46.693Z,4.19
2023-05-05T04:21:17.112Z,4.26
2023-05-05T04:23:47.749Z,4.47
2023-05-05T04:26:18.570Z,4.4
2023-05-05T04:28:48.690Z,4.4
2023-05-05T04:31:18.956Z,4.61
2023-05-05T04:33:49.358Z,4.48
2023-05-05T04:36:20.210Z,4.7
2023-05-05T04:38:50.631Z,5.06
2023-05-05T04:41:21.154Z,5.09
2023-05-05T04:43:51.356Z,5.13
2023-05-05T04:46:22.240Z,5.29
2023-05-05T04:48:52.856Z,5.39
2023-05-05T04:51:23.254Z,5.85
2023-05-05T04:53:53.451Z,5.51
2023-05-05T04:56:23.692Z,5.3
2023-05-05T04:58:54.286Z,5.75
2023-05-05T05:01:24.869Z,6.21
2023-05-05T05:03:55.900Z,6.15
2023-05-05T05:06:26.195Z,6.56
2023-05-05T05:08:56.758Z,5.95
2023-05-05T05:11:26.935Z,6.06
2023-05-05T05:13:57.328Z,6.36
2023-05-05T05:16:27.480Z,6.12
2023-05-05T05:18:59.591Z,6.3
2023-05-05T05:21:28.311Z,5.97
2023-05-05T05:23:58.952Z,6
2023-05-05T05:26:29.426Z,6.05
2023-05-05T05:28:59.685Z,6.21
2023-05-05T05:31:30.578Z,6.37
2023-05-05T05:34:00.441Z,6.44
2023-05-05T05:36:31.216Z,6.24
2023-05-05T05:39:01.773Z,6.22
2023-05-05T05:41:32.043Z,6.1
2023-05-05T05:44:02.964Z,6.03
2023-05-05T05:46:33.535Z,6.16
2023-05-05T05:49:04.144Z,6.43
2023-05-05T05:51:34.228Z,6.45
2023-05-05T05:54:04.445Z,6.3
2023-05-05T05:56:35.262Z,6.17
2023-05-05T05:59:06.101Z,6.3
2023-05-05T06:01:36.652Z,6.2
2023-05-05T06:04:06.959Z,6.21
2023-05-05T06:06:37.052Z,6.36
2023-05-05T06:09:07.483Z,6.55
2023-05-05T06:11:38.093Z,6.28
2023-05-05T06:14:08.863Z,6.23
2023-05-05T06:16:39.506Z,6.37
2023-05-05T06:19:10.058Z,6.4
2023-05-05T06:21:40.320Z,6.6
2023-05-05T06:24:11.249Z,6.55
2023-05-05T06:26:41.476Z,6.32
2023-05-05T06:29:12.398Z,6.83
2023-05-05T06:31:42.125Z,6.49
2023-05-05T06:34:12.352Z,6.38
2023-05-05T06:36:42.618Z,6.47
2023-05-05T06:39:15.846Z,6.63
2023-05-05T06:41:43.155Z,6.7
2023-05-05T06:44:13.280Z,6.43
2023-05-05T06:46:43.979Z,6.26
2023-05-05T06:49:14.372Z,6.28
2023-05-05T06:51:44.601Z,6.34
2023-05-05T06:54:15.435Z,6.33
2023-05-05T06:56:45.784Z,6.15
2023-05-05T06:59:16.585Z,6.12
2023-05-05T07:01:46.985Z,6.09
2023-05-05T07:04:17.669Z,6.24
2023-05-05T07:06:48.059Z,6.37
2023-05-05T07:09:18.315Z,6.36
2023-05-05T07:11:48.452Z,6.43
2023-05-05T07:14:20.101Z,6.39
2023-05-05T07:16:49.808Z,6.29
2023-05-05T07:19:20.328Z,6.2
2023-05-05T07:21:51.070Z,6.37
2023-05-05T07:24:21.491Z,6.35
2023-05-05T07:26:52.015Z,6.11
2023-05-05T07:29:22.564Z,6.27
2023-05-05T07:31:52.739Z,6.31
2023-05-05T07:34:23.397Z,6.15
2023-05-05T07:36:53.482Z,6.05
2023-05-05T07:39:24.137Z,6.21
2023-05-05T07:41:54.267Z,5.98
2023-05-05T07:44:24.773Z,5.98
2023-05-05T07:46:54.919Z,6.35
2023-05-05T07:49:25.394Z,6.43
2023-05-05T07:51:55.587Z,6.14
2023-05-05T07:54:25.801Z,6.25
2023-05-05T07:56:56.010Z,6.27
2023-05-05T07:59:26.159Z,6.16
2023-05-05T08:01:56.352Z,6
2023-05-05T08:04:26.933Z,6.17
2023-05-05T08:06:57.215Z,6.3
2023-05-05T08:09:27.639Z,5.91
2023-05-05T08:11:58.042Z,6.12
2023-05-05T08:14:28.590Z,5.82
2023-05-05T08:16:58.713Z,5.8
2023-05-05T08:19:29.688Z,5.55
2023-05-05T08:22:01.239Z,5.83
2023-05-05T08:24:29.584Z,5.92
2023-05-05T08:27:00.252Z,5.74
2023-05-05T08:29:31.015Z,6.17
2023-05-05T08:32:01.833Z,5.47
2023-05-05T08:34:32.549Z,5.52
2023-05-05T08:37:02.687Z,5.28
2023-05-05T08:39:32.964Z,6.09
2023-05-05T08:42:03.611Z,6
2023-05-05T08:44:34.236Z,6.03
2023-05-05T08:47:05.271Z,6.06
2023-05-05T08:49:35.696Z,5.63
2023-05-05T08:52:06.370Z,5.07
2023-05-05T08:54:37.034Z,5.03
2023-05-05T08:57:07.814Z,4.75
2023-05-05T08:59:37.799Z,4.92
2023-05-05T09:02:08.349Z,5.3
2023-05-05T09:04:38.988Z,5.42
2023-05-05T09:07:09.435Z,5.65
2023-05-05T09:09:39.848Z,5.17
2023-05-05T09:12:09.991Z,5.24
2023-05-05T09:14:40.379Z,5.11
2023-05-05T09:17:10.547Z,5.54
2023-05-05T09:19:41.126Z,5.81
2023-05-05T09:22:11.515Z,5.7
2023-05-05T09:24:41.984Z,5.61
2023-05-05T09:27:12.366Z,5.98
2023-05-05T09:29:43.053Z,5.28
2023-05-05T09:32:13.165Z,5.19
2023-05-05T09:34:43.709Z,6.01
2023-05-05T09:37:13.933Z,5.68
2023-05-05T09:39:44.208Z,5.71
2023-05-05T09:42:14.864Z,5.5
2023-05-05T09:44:44.984Z,5.37
2023-05-05T09:47:29.056Z,5.32
2023-05-05T09:49:45.375Z,4.85
2023-05-05T09:52:15.490Z,4.94
2023-05-05T09:54:45.546Z,5.02
2023-05-05T09:57:15.639Z,5.27
2023-05-05T09:59:46.187Z,5.13
2023-05-05T10:02:16.567Z,5.35
2023-05-05T10:04:47.202Z,4.72
2023-05-05T10:07:17.784Z,4.96
2023-05-05T10:09:48.448Z,5.35
2023-05-05T10:12:18.965Z,5.77
2023-05-05T10:14:49.728Z,5.33
2023-05-05T10:17:19.824Z,5.18
2023-05-05T10:19:50.255Z,5.8
2023-05-05T10:22:21.004Z,5.24
2023-05-05T10:24:51.218Z,5.05
2023-05-05T10:27:21.472Z,4.15
2023-05-05T10:29:52.312Z,4.34
2023-05-05T10:32:51.126Z,4.3
2023-05-05T10:34:52.935Z,3.72
2023-05-05T10:37:23.758Z,4.25
2023-05-05T10:39:53.983Z,4.23
2023-05-05T10:42:23.956Z,3.8
2023-05-05T10:44:54.475Z,4.04
2023-05-05T10:47:24.772Z,3.73
2023-05-05T10:49:55.268Z,3.93
2023-05-05T10:52:25.603Z,3.56
2023-05-05T10:54:56.351Z,3.54
2023-05-05T10:57:26.603Z,3.96
2023-05-05T10:59:57.145Z,4.65
2023-05-05T11:02:27.715Z,4.16
2023-05-05T11:04:57.915Z,3.98
2023-05-05T11:07:28.137Z,3.72
2023-05-05T11:09:58.670Z,4.18
2023-05-05T11:12:28.898Z,4.29
2023-05-05T11:14:59.547Z,4.28
2023-05-05T11:17:29.839Z,4.81
2023-05-05T11:19:59.730Z,4.39
2023-05-05T11:22:30.616Z,4.17
2023-05-05T11:25:00.843Z,3.79
2023-05-05T11:27:31.175Z,4.14
2023-05-05T11:30:01.545Z,4.44
2023-05-05T11:32:31.669Z,4.34
2023-05-05T11:35:02.095Z,3.92
2023-05-05T11:37:32.166Z,4.07
2023-05-05T11:40:02.862Z,4.31
2023-05-05T11:42:33.128Z,3.73
2023-05-05T11:45:03.909Z,3.82
2023-05-05T11:47:34.770Z,4.07
2023-05-05T11:50:05.290Z,3.7
2023-05-05T11:52:35.515Z,4.43
2023-05-05T11:55:05.696Z,3.76
2023-05-05T11:57:35.947Z,4.22
2023-05-05T12:00:06.953Z,4.23
2023-05-05T12:02:37.037Z,4.14
2023-05-05T12:05:07.270Z,3.89
2023-05-05T12:07:38.263Z,3.9
2023-05-05T12:10:08.633Z,3.91
2023-05-05T12:12:39.135Z,3.68
2023-05-05T12:15:10.088Z,3.35
2023-05-05T12:17:40.042Z,3.37
2023-05-05T12:20:10.652Z,3.39
2023-05-05T12:22:40.527Z,3.75
2023-05-05T12:25:10.784Z,3.32
2023-05-05T12:27:41.663Z,3.34
2023-05-05T12:30:12.429Z,3.36
2023-05-05T12:32:42.752Z,3.77
2023-05-05T12:35:13.400Z,3.72
2023-05-05T12:37:44.120Z,3.65
2023-05-05T12:40:14.935Z,3.45
2023-05-05T12:42:46.391Z,3.44
2023-05-05T12:45:16.452Z,3.43
2023-05-05T12:47:46.723Z,3.28
2023-05-05T12:50:17.146Z,3.82
2023-05-05T12:52:47.414Z,3.96
2023-05-05T12:55:18.186Z,3.99
2023-05-05T12:57:48.467Z,3.93
2023-05-05T13:00:18.650Z,3.98
2023-05-05T13:02:49.526Z,3.46
2023-05-05T13:05:19.674Z,3.35
2023-05-05T13:07:50.089Z,3.3
2023-05-05T13:10:20.341Z,3.13
2023-05-05T13:12:50.689Z,3.33
2023-05-05T13:15:21.265Z,3.42
2023-05-05T13:17:56.532Z,3.62
2023-05-05T13:20:21.661Z,4.18
2023-05-05T13:27:52.717Z,4.21
2023-05-05T13:30:22.986Z,4.03
2023-05-05T13:32:53.031Z,4.1
2023-05-05T13:35:23.324Z,4.32
2023-05-05T13:37:53.688Z,4.86
2023-05-05T13:40:25.733Z,4.83
2023-05-05T13:42:54.444Z,4.92
2023-05-05T13:45:24.788Z,5.03
2023-05-05T13:47:54.938Z,5.23
2023-05-05T13:50:25.337Z,5.26
2023-05-05T13:52:55.702Z,5.73
2023-05-05T13:55:26.079Z,5.46
2023-05-05T13:57:56.503Z,5.52
2023-05-05T14:00:26.926Z,5.6
2023-05-05T14:02:57.324Z,5.59
2023-05-05T14:05:27.687Z,5.36
2023-05-05T14:07:58.073Z,5.13
2023-05-05T14:10:28.527Z,5.15
2023-05-05T14:12:58.929Z,5.14
2023-05-05T14:15:29.272Z,5.27
2023-05-05T14:17:59.700Z,5.34
2023-05-05T14:20:30.147Z,5.5
2023-05-05T14:23:00.505Z,4.97
2023-05-05T14:25:30.992Z,5.11
2023-05-05T14:28:01.353Z,5.36
2023-05-05T14:30:31.761Z,5.52
2023-05-05T14:33:02.244Z,5.23
2023-05-05T14:35:32.647Z,5.37
2023-05-05T14:38:03.119Z,5.54
2023-05-05T14:40:33.665Z,5.38
2023-05-05T14:43:04.035Z,5.63
2023-05-05T14:45:34.466Z,5.62
2023-05-05T14:48:05.053Z,5.89
2023-05-05T14:50:35.375Z,5.75
2023-05-05T14:53:05.852Z,5.49
2023-05-05T14:55:36.338Z,5.58
2023-05-05T14:58:06.783Z,5.39
2023-05-05T15:00:37.241Z,5.59
2023-05-05T15:03:07.834Z,5.36
2023-05-05T15:05:38.193Z,5.43
2023-05-05T15:08:08.700Z,5.45
2023-05-05T15:10:39.191Z,5.52
2023-05-05T15:13:09.834Z,5.43
2023-05-05T15:15:40.299Z,5.51
2023-05-05T15:18:10.671Z,5.59
2023-05-05T15:20:41.164Z,5.66
2023-05-05T15:23:11.738Z,5.73
2023-05-05T15:25:42.103Z,5.41
2023-05-05T15:28:12.582Z,5.49
2023-05-05T15:30:43.027Z,5.73
2023-05-05T15:33:13.474Z,5.59
2023-05-05T15:35:43.921Z,5.59
2023-05-05T15:38:14.391Z,5.77
2023-05-05T15:40:44.929Z,5.7
2023-05-05T15:43:15.337Z,5.58
2023-05-05T15:45:45.770Z,5.91
2023-05-05T15:48:16.213Z,5.72
2023-05-05T15:50:46.756Z,5.85
2023-05-05T15:53:17.165Z,5.66
2023-05-05T15:55:47.709Z,5.75
2023-05-05T15:58:18.150Z,5.94
2023-05-05T16:00:48.508Z,5.88
2023-05-05T16:03:19.077Z,5.82
2023-05-05T16:05:49.347Z,5.87
2023-05-05T16:08:19.835Z,6.02
2023-05-05T16:10:50.268Z,5.95
2023-05-05T16:13:20.892Z,5.7
2023-05-05T16:15:51.108Z,5.55
2023-05-05T16:18:21.547Z,5.76
2023-05-05T16:20:52.060Z,5.79
2023-05-05T16:23:22.374Z,5.73
2023-05-05T16:25:52.829Z,5.82
2023-05-05T16:28:23.210Z,5.68
2023-05-05T16:30:53.574Z,5.98
2023-05-05T16:33:24.193Z,5.68
2023-05-05T16:35:54.364Z,6.01
2023-05-05T16:38:24.837Z,5.67
2023-05-05T16:40:55.260Z,5.57
2023-05-05T16:43:25.686Z,5.39
2023-05-05T16:45:55.984Z,5.52
2023-05-05T16:48:26.338Z,5.46
2023-05-05T16:50:56.712Z,5.34
2023-05-05T16:53:27.210Z,5.61
2023-05-05T16:55:57.563Z,5.82
2023-05-05T16:58:28.224Z,5.6
2023-05-05T17:03:28.808Z,5.4
2023-05-05T17:05:59.184Z,5.77
2023-05-05T17:08:29.577Z,5.4
2023-05-05T17:10:59.958Z,5.61
2023-05-05T17:13:30.402Z,5.58
2023-05-05T17:16:00.766Z,5.44
2023-05-05T17:18:31.173Z,5.97
2023-05-05T17:21:01.622Z,6.19
2023-05-05T17:23:31.967Z,6.21
2023-05-05T17:26:02.314Z,6.23
2023-05-05T17:28:32.737Z,6.02
2023-05-05T17:31:03.083Z,5.99
2023-05-05T17:33:33.462Z,6.08
2023-05-05T17:36:03.832Z,6.18
2023-05-05T17:38:34.216Z,5.91
2023-05-05T17:41:04.625Z,5.43
2023-05-05T17:43:34.967Z,5.57
2023-05-05T17:46:05.333Z,5.3
2023-05-05T17:48:35.697Z,6.24
2023-05-05T17:51:06.034Z,5.79
2023-05-05T17:53:36.415Z,5.39
2023-05-05T17:56:08.871Z,5.24
2023-05-05T17:58:37.172Z,5.61
2023-05-05T18:01:07.572Z,5.84
2023-05-05T18:03:40.683Z,5.49
2023-05-05T18:06:08.270Z,5.87
2023-05-05T18:08:38.756Z,5.91
2023-05-05T18:11:09.034Z,5.91
2023-05-05T18:13:39.484Z,6.38
2023-05-05T18:16:09.848Z,6.63
2023-05-05T18:18:40.306Z,6.54
2023-05-05T18:21:10.565Z,6.52
2023-05-05T18:23:40.959Z,6.33
2023-05-05T18:26:11.335Z,6.65
2023-05-05T18:28:41.718Z,6.29
2023-05-05T18:33:42.453Z,6.1
2023-05-05T18:36:12.825Z,6.18
2023-05-05T18:38:43.201Z,6.33
2023-05-05T18:41:13.624Z,6.92
2023-05-05T18:43:43.980Z,7.34
2023-05-05T18:46:14.365Z,7.34
2023-05-05T18:48:44.734Z,7.51
2023-05-05T18:51:15.081Z,7.06
2023-05-05T18:53:45.466Z,7.06
2023-05-05T18:56:15.860Z,6.81
2023-05-05T18:58:46.269Z,6.82
2023-05-05T19:01:16.686Z,6.9
2023-05-05T19:03:47.035Z,6.76
2023-05-05T19:06:17.407Z,6.73
2023-05-05T19:08:47.802Z,6.7
2023-05-05T19:11:18.244Z,6.87
2023-05-05T19:13:48.585Z,6.98
2023-05-05T19:16:19.000Z,7.16
2023-05-05T19:18:49.357Z,7.43
2023-05-05T19:21:19.737Z,7.49
2023-05-05T19:23:50.149Z,7.48
2023-05-05T19:26:20.675Z,7.16
2023-05-05T19:28:50.956Z,7.07
2023-05-05T19:31:21.353Z,7.15
2023-05-05T19:33:51.743Z,7.23
2023-05-05T19:36:21.776Z,7.16
2023-05-05T19:38:52.179Z,7.25
2023-05-05T19:41:22.599Z,7.27
2023-05-05T19:43:53.020Z,7.29
2023-05-05T19:46:23.461Z,7.45
2023-05-05T19:48:53.820Z,8.18
2023-05-05T19:51:24.224Z,8.46
2023-05-05T19:53:54.621Z,8.41
2023-05-05T19:56:25.115Z,7.76
2023-05-05T19:58:55.481Z,7.48
2023-05-05T20:01:25.946Z,7.48
2023-05-05T20:03:56.593Z,7.29
2023-05-05T20:06:26.693Z,7.3
2023-05-05T20:08:57.129Z,7.32
2023-05-05T20:11:27.519Z,7.6
2023-05-05T20:13:57.994Z,8.23
2023-05-05T20:16:28.486Z,8.07
2023-05-05T20:18:58.841Z,7.82
2023-05-05T20:21:29.286Z,7.57
2023-05-05T20:23:59.821Z,7.48
2023-05-05T20:26:30.227Z,7.39
2023-05-05T20:29:00.706Z,7.91
2023-05-05T20:31:31.255Z,7.76
2023-05-05T20:34:01.587Z,7.68
2023-05-05T20:36:32.136Z,7.42
2023-05-05T20:39:02.501Z,7.6
2023-05-05T20:41:32.932Z,7.79
2023-05-05T20:44:03.422Z,7.96
2023-05-05T20:46:33.888Z,7.85
2023-05-05T20:49:04.327Z,7.77
2023-05-05T20:51:34.816Z,7.84
2023-05-05T20:54:05.425Z,7.76
2023-05-05T20:56:35.773Z,7.39
2023-05-05T20:59:06.180Z,7.32
2023-05-05T21:01:36.856Z,7.42
2023-05-05T21:04:07.164Z,7.42
2023-05-05T21:06:37.567Z,7.41
2023-05-05T21:09:08.063Z,7.5
2023-05-05T21:11:38.536Z,7.49
2023-05-05T21:14:09.083Z,7.59
2023-05-05T21:16:39.508Z,7.61
2023-05-05T21:19:09.949Z,7.52
2023-05-05T21:21:40.405Z,7.7
2023-05-05T21:24:10.888Z,8
2023-05-05T21:26:41.354Z,8.47
2023-05-05T21:29:11.942Z,9.1
2023-05-05T21:31:42.402Z,8.94
2023-05-05T21:34:12.869Z,8.47
2023-05-05T21:36:43.428Z,8.69
2023-05-05T21:39:13.899Z,8.88
2023-05-05T21:41:44.408Z,8.78
2023-05-05T21:44:15.004Z,8.86
2023-05-05T21:46:45.656Z,8.67
2023-05-05T21:49:16.137Z,8.32
2023-05-05T21:51:46.440Z,7.95
2023-05-05T21:54:16.715Z,7.85
2023-05-05T21:56:47.254Z,7.69
2023-05-05T21:59:17.910Z,8.06
2023-05-05T22:01:48.149Z,8.24
2023-05-05T22:04:18.182Z,8.16
2023-05-05T22:06:48.449Z,7.99
2023-05-05T22:09:18.505Z,7.9
2023-05-05T22:11:49.004Z,7.7
2023-05-05T22:14:19.884Z,7.63
2023-05-05T22:16:50.480Z,7.45
2023-05-05T22:19:21.248Z,7.45
2023-05-05T22:21:51.730Z,7.54
2023-05-05T22:24:22.253Z,7.46
2023-05-05T22:26:52.891Z,7.54
2023-05-05T22:29:23.482Z,7.45
2023-05-05T22:31:54.073Z,7.28
2023-05-05T22:34:24.372Z,7.48
2023-05-05T22:36:54.701Z,7.65
2023-05-05T22:39:25.397Z,7.76
2023-05-05T22:41:55.678Z,7.83
2023-05-05T22:44:25.989Z,7.82
2023-05-05T22:46:56.610Z,7.81
2023-05-05T22:49:27.055Z,7.72
2023-05-05T22:51:57.647Z,7.54
2023-05-05T22:54:28.065Z,7.38
2023-05-05T22:56:58.845Z,7.3
2023-05-05T22:59:29.185Z,7.29
2023-05-05T23:01:59.287Z,7.39
2023-05-05T23:04:30.162Z,7.3
2023-05-05T23:07:00.867Z,7.33
2023-05-05T23:09:31.688Z,7.32
2023-05-05T23:12:01.810Z,7.37
2023-05-05T23:14:32.117Z,7.37
2023-05-05T23:17:02.898Z,7.48
2023-05-05T23:19:33.656Z,7.59
2023-05-05T23:22:04.554Z,7.5
2023-05-05T23:24:35.236Z,7.61
2023-05-05T23:27:05.812Z,7.69
2023-05-05T23:29:36.457Z,7.6
2023-05-05T23:32:06.562Z,7.6
2023-05-05T23:34:37.209Z,7.65
2023-05-05T23:37:07.486Z,7.63
2023-05-05T23:39:38.082Z,7.66
2023-05-05T23:42:08.585Z,7.56
2023-05-05T23:44:39.339Z,7.63
2023-05-05T23:47:10.103Z,7.64
2023-05-05T23:49:40.743Z,7.64
2023-05-05T23:52:10.754Z,7.66
2023-05-05T23:54:41.000Z,7.64
2023-05-05T23:57:11.785Z,7.64
2023-05-05T23:59:42.648Z,7.72
